Skip Navigation

Christman Field Latest Observations

Switch to metric unitsOther observation timesWeekly graphs

Date Time
MST
Temp
°F
RH
%
DewPt
°F
Wind
mph
Dir
°
Gust
mph
Dir
°
Press
in Hg
Solar
W/m^2
Prec
in
2020-01-19 12:40 42.2 29.5 12.6 7.6 126 10.0 162 25.175 493.3 0.00
2020-01-19 12:35 42.6 29.3 12.7 6.2 158 9.8 165 25.177 494.2 0.00
2020-01-19 12:30 42.2 29.5 12.6 7.0 149 10.3 136 25.178 494.6 0.00
2020-01-19 12:25 41.9 29.7 12.5 6.2 137 9.9 139 25.178 484.5 0.00
2020-01-19 12:20 41.0 31.2 12.8 7.3 136 10.3 155 25.181 502.2 0.00
2020-01-19 12:15 40.7 32.0 13.1 7.1 160 9.0 134 25.186 427.0 0.00
2020-01-19 12:10 40.8 31.7 13.0 6.2 140 9.5 144 25.189 359.9 0.00
2020-01-19 12:05 40.7 32.1 13.2 6.1 142 9.9 144 25.186 382.3 0.00
2020-01-19 12:00 40.5 32.2 13.1 8.1 119 12.0 128 25.182 422.9 0.00
2020-01-19 11:55 40.5 31.2 12.3 7.6 111 10.8 136 25.183 464.7 0.00
2020-01-19 11:50 41.2 31.1 12.8 9.1 133 12.8 88 25.188 537.8 0.00
2020-01-19 11:45 41.4 29.8 12.1 9.0 121 13.4 95 25.188 566.1 0.00
2020-01-19 11:40 41.0 31.0 12.7 8.0 99 11.4 103 25.184 527.3 0.00
2020-01-19 11:35 41.9 29.6 12.3 6.9 105 10.8 117 25.186 524.7 0.00
2020-01-19 11:30 41.0 31.4 13.0 4.6 99 8.2 93 25.189 519.1 0.00
2020-01-19 11:25 39.8 32.5 12.7 6.4 115 10.0 139 25.189 453.7 0.00
2020-01-19 11:20 38.8 34.2 13.0 7.2 148 9.3 148 25.194 453.3 0.00
2020-01-19 11:15 38.3 35.2 13.2 6.8 157 10.0 163 25.197 455.6 0.00
2020-01-19 11:10 37.9 36.3 13.5 5.7 155 8.9 172 25.201 485.8 0.00
2020-01-19 11:05 37.8 35.8 13.1 5.1 178 8.4 161 25.207 501.9 0.00
2020-01-19 11:00 37.2 37.4 13.5 4.9 125 9.3 138 25.209 482.6 0.00
2020-01-19 10:55 36.8 37.9 13.4 3.7 191 7.1 157 25.214 479.2 0.00
2020-01-19 10:50 36.1 39.6 13.9 0.8 128 2.9 120 25.220 426.1 0.00
2020-01-19 10:45 34.9 42.1 14.2 2.9 94 5.0 154 25.218 353.9 0.00
2020-01-19 10:40 34.4 42.4 13.9 0.9 160 3.0 165 25.218 252.3 0.00
2020-01-19 10:35 34.0 41.9 13.2 2.0 114 4.1 111 25.220 274.2 0.00
2020-01-19 10:30 34.1 42.0 13.4 2.9 103 4.8 110 25.220 310.6 0.00
2020-01-19 10:25 33.8 41.0 12.6 2.9 127 7.0 17 25.220 388.8 0.00
2020-01-19 10:20 33.7 43.8 13.9 1.8 62 5.0 68 25.222 376.8 0.00
2020-01-19 10:15 33.3 47.5 15.5 4.5 86 6.4 102 25.218 410.3 0.00